Time;durP1;ratioP1;P1;durP2;ratioP2;P2;SDS_P1;SDS_P2;PMS_P1;PMS_P2;Temp;Humidity;BMP_temperature;BMP_pressure;BME280_temperature;BME280_humidity;BME280_pressure;Samples;Min_cycle;Max_cycle;Signal;HPM_P1;HPM_P2
2022/06/16 00:04:03;;;;;;;5.28;3.50;;;;;;;18.50;49.24;99879.13;10387943;28;20085;-60
2022/06/16 00:09:04;;;;;;;6.20;3.47;;;;;;;18.28;49.91;99878.66;10388130;28;20053;-61
2022/06/16 00:14:06;;;;;;;6.15;3.22;;;;;;;18.19;49.89;99879.44;10386890;28;20506;-60
2022/06/16 00:19:08;;;;;;;8.07;3.20;;;;;;;18.13;50.29;99877.38;10386526;28;20133;-61
2022/06/16 00:24:10;;;;;;;8.77;3.72;;;;;;;18.15;50.27;99878.06;10387454;28;20404;-60
2022/06/16 00:29:12;;;;;;;8.90;3.70;;;;;;;18.08;50.42;99882.22;10386578;28;20229;-60
2022/06/16 00:34:14;;;;;;;6.70;3.22;;;;;;;18.00;50.45;99876.81;10387979;28;20053;-60
2022/06/16 00:39:15;;;;;;;5.93;3.25;;;;;;;17.92;50.94;99872.22;10387089;28;20164;-60
2022/06/16 00:44:38;;;;;;;6.72;3.30;;;;;;;17.70;51.67;99877.78;10386971;28;20136;-60
2022/06/16 00:49:43;;;;;;;6.53;3.38;;;;;;;17.67;51.29;99878.88;10385089;28;20395;-60
2022/06/16 00:55:09;;;;;;;7.50;3.70;;;;;;;17.55;51.89;99877.34;10385469;28;20132;-60
2022/06/16 01:05:25;;;;;;;6.63;3.80;;;;;;;17.49;52.02;99883.19;10384928;28;20148;-60
2022/06/16 01:10:37;;;;;;;5.18;3.45;;;;;;;17.54;52.13;99891.56;10385171;28;20073;-60
2022/06/16 01:16:06;;;;;;;4.88;3.40;;;;;;;17.59;52.16;99899.91;10384978;28;20140;-60
2022/06/16 01:21:28;;;;;;;5.65;3.35;;;;;;;17.61;52.06;99900.59;10384616;28;20053;-60
2022/06/16 01:27:07;;;;;;;7.65;3.80;;;;;;;17.40;52.43;99902.53;10383769;28;20585;-60
2022/06/16 01:32:17;;;;;;;8.18;3.67;;;;;;;17.24;52.41;99912.72;10385397;28;20131;-60
2022/06/16 01:37:47;;;;;;;5.57;3.65;;;;;;;17.16;52.87;99907.25;10385191;28;20080;-60
2022/06/16 01:43:01;;;;;;;8.85;3.70;;;;;;;17.13;53.12;99909.34;10383768;28;20160;-60
2022/06/16 01:48:07;;;;;;;5.47;3.63;;;;;;;17.16;53.02;99909.91;10383287;28;20057;-59
2022/06/16 01:53:15;;;;;;;6.68;3.60;;;;;;;17.19;52.96;99908.81;10385019;28;20136;-60
2022/06/16 01:58:32;;;;;;;10.10;3.50;;;;;;;17.15;52.73;99902.13;10383853;28;20046;-60
2022/06/16 02:03:46;;;;;;;7.10;3.70;;;;;;;17.01;53.55;99903.34;10387109;28;20136;-59
2022/06/16 02:08:56;;;;;;;7.22;3.88;;;;;;;16.98;53.69;99908.88;10391081;28;20708;-59
2022/06/16 02:14:09;;;;;;;7.65;4.22;;;;;;;16.82;53.90;99908.50;10390264;28;20121;-59
2022/06/16 02:19:14;;;;;;;7.28;4.10;;;;;;;16.60;54.24;99912.16;10391058;28;20132;-60
2022/06/16 02:24:20;;;;;;;5.60;3.78;;;;;;;16.60;54.16;99911.31;10390794;28;20147;-59
2022/06/16 02:29:37;;;;;;;7.78;4.03;;;;;;;16.66;54.27;99913.44;10373431;28;20057;-59
2022/06/16 02:35:06;;;;;;;6.63;3.85;;;;;;;16.56;54.19;99917.81;10390656;28;20049;-59
2022/06/16 02:40:30;;;;;;;5.60;3.85;;;;;;;16.68;54.13;99924.69;10398910;28;20061;-59
2022/06/16 02:45:37;;;;;;;6.65;3.20;;;;;;;16.78;53.92;99946.72;10397713;28;20152;-60
2022/06/16 02:50:57;;;;;;;7.00;4.00;;;;;;;16.72;54.43;99939.31;10398584;28;20045;-60
2022/06/16 02:56:05;;;;;;;6.28;3.97;;;;;;;16.65;54.47;99939.00;10397982;28;20089;-60
2022/06/16 03:01:07;;;;;;;5.80;3.70;;;;;;;16.54;54.43;99935.59;10397167;28;20045;-60
2022/06/16 03:06:10;;;;;;;7.90;4.30;;;;;;;16.62;54.46;99934.00;10392048;28;20061;-60
2022/06/16 03:11:12;;;;;;;7.45;4.05;;;;;;;16.65;54.35;99925.78;10390710;28;20137;-60
2022/06/16 03:16:14;;;;;;;4.78;3.63;;;;;;;16.62;54.45;99927.88;10387449;28;20448;-60
2022/06/16 03:21:16;;;;;;;7.88;4.00;;;;;;;16.69;54.39;99939.59;10390333;28;20449;-60
2022/06/16 03:26:18;;;;;;;7.78;3.88;;;;;;;16.62;54.16;99949.84;10387964;28;20494;-60
2022/06/16 03:31:19;;;;;;;6.20;3.90;;;;;;;16.59;54.04;99959.81;10389615;28;20417;-60
2022/06/16 03:36:21;;;;;;;5.95;3.58;;;;;;;16.45;54.89;99953.03;10389974;28;20058;-60
2022/06/16 03:41:24;;;;;;;5.85;3.60;;;;;;;16.64;54.23;99947.91;10388295;28;20128;-60
2022/06/16 03:46:26;;;;;;;6.05;3.60;;;;;;;16.67;54.29;99944.16;10388724;28;20560;-60
2022/06/16 03:51:28;;;;;;;6.82;3.97;;;;;;;16.67;54.48;99960.03;10389121;28;20412;-60
2022/06/16 03:56:30;;;;;;;7.70;3.55;;;;;;;16.76;54.17;99997.03;10388248;28;20296;-60
2022/06/16 04:01:31;;;;;;;8.45;3.83;;;;;;;16.91;54.14;99982.56;10387563;28;20132;-60
2022/06/16 04:06:35;;;;;;;5.43;3.40;;;;;;;17.16;53.59;99985.72;10387470;28;20049;-60
2022/06/16 04:11:37;;;;;;;9.05;4.00;;;;;;;17.23;53.00;99974.50;10386997;28;20104;-60
2022/06/16 04:16:48;;;;;;;5.38;3.67;;;;;;;17.17;53.35;99988.22;10386500;28;20050;-60
2022/06/16 04:21:53;;;;;;;5.95;3.70;;;;;;;17.22;52.94;99991.31;10386119;28;20128;-60
2022/06/16 04:26:57;;;;;;;6.05;3.80;;;;;;;17.77;51.99;99996.13;10387644;28;20160;-60
2022/06/16 04:32:01;;;;;;;7.03;3.70;;;;;;;19.05;49.53;99983.50;10388140;28;20128;-60
2022/06/16 04:37:03;;;;;;;5.88;3.38;;;;;;;19.98;47.50;99988.66;10387356;28;20383;-60
2022/06/16 04:42:05;;;;;;;5.85;3.60;;;;;;;20.56;45.59;99997.81;10386200;28;20601;-60
2022/06/16 04:47:08;;;;;;;4.85;3.10;;;;;;;20.29;46.52;99997.94;10386373;28;20473;-60
2022/06/16 04:52:11;;;;;;;5.32;3.47;;;;;;;19.96;46.80;99993.28;10386484;28;20508;-60
2022/06/16 04:57:13;;;;;;;4.82;3.25;;;;;;;19.48;47.88;100000.63;10384894;28;20787;-60
2022/06/16 05:02:15;;;;;;;5.93;3.30;;;;;;;19.33;47.80;100008.22;10384855;28;20413;-60
2022/06/16 05:07:18;;;;;;;4.63;3.10;;;;;;;20.10;46.70;100014.84;10376098;28;20067;-61
2022/06/16 05:12:20;;;;;;;7.15;3.78;;;;;;;22.50;42.51;100005.78;10382541;28;20071;-60
2022/06/16 05:17:21;;;;;;;7.22;3.08;;;;;;;24.07;39.16;99998.75;10380098;28;20051;-61
2022/06/16 05:22:24;;;;;;;5.68;3.20;;;;;;;23.40;40.26;100013.56;10381387;28;20132;-60
2022/06/16 05:27:25;;;;;;;8.98;3.17;;;;;;;23.53;39.90;100023.72;10383695;28;20216;-61
2022/06/16 05:32:27;;;;;;;8.38;3.25;;;;;;;22.61;40.90;100029.47;10385155;28;20444;-61
2022/06/16 05:37:31;;;;;;;6.95;3.28;;;;;;;21.83;42.43;100045.88;10382325;28;20045;-61
2022/06/16 05:42:33;;;;;;;5.55;3.20;;;;;;;21.50;43.27;100060.03;10385665;28;20132;-61
2022/06/16 05:47:37;;;;;;;7.95;3.33;;;;;;;21.61;43.09;100060.63;10383839;28;20049;-61
2022/06/16 05:52:39;;;;;;;7.32;3.08;;;;;;;21.53;43.19;100057.91;10383397;28;20059;-61
2022/06/16 05:57:40;;;;;;;7.40;3.53;;;;;;;21.55;43.17;100069.22;10377432;28;20133;-61
2022/06/16 06:02:42;;;;;;;5.20;3.33;;;;;;;21.65;43.25;100077.09;10382494;28;20051;-60
2022/06/16 06:18:25;;;;;;;6.38;3.20;;;;;;;21.42;44.19;100081.28;10387871;28;20501;-61
2022/06/16 06:23:26;;;;;;;7.28;3.42;;;;;;;21.90;42.28;100077.03;10388374;28;20636;-61
2022/06/16 06:28:28;;;;;;;10.35;3.40;;;;;;;22.46;41.14;100067.56;10389608;28;20375;-61
2022/06/16 06:33:30;;;;;;;7.93;3.83;;;;;;;23.08;39.77;100071.47;10391258;28;20132;-61
2022/06/16 06:38:32;;;;;;;6.55;3.15;;;;;;;23.56;38.84;100079.41;10391262;28;20148;-61
2022/06/16 06:43:38;;;;;;;8.20;2.97;;;;;;;24.16;38.03;100082.41;10390022;28;20056;-61
2022/06/16 06:48:40;;;;;;;7.28;3.40;;;;;;;25.11;36.37;100089.94;10386938;28;20160;-61
2022/06/16 06:53:41;;;;;;;5.82;2.90;;;;;;;26.13;34.52;100097.25;10388415;28;20091;-61
2022/06/16 06:58:43;;;;;;;6.50;2.90;;;;;;;27.54;32.19;100091.00;10381726;28;20144;-61
2022/06/16 07:03:46;;;;;;;7.50;3.08;;;;;;;29.02;30.24;100086.44;10390391;28;20457;-61
2022/06/16 07:08:49;;;;;;;8.18;2.63;;;;;;;30.37;27.42;100084.69;10389028;28;20410;-61
2022/06/16 07:13:50;;;;;;;6.95;3.00;;;;;;;31.43;25.91;100080.19;10389640;28;20053;-61
2022/06/16 07:18:52;;;;;;;7.18;2.92;;;;;;;31.85;24.92;100087.47;10387009;28;20395;-61
2022/06/16 07:23:54;;;;;;;7.40;2.60;;;;;;;32.05;24.26;100101.63;10376757;28;20538;-61
2022/06/16 07:28:59;;;;;;;5.75;2.70;;;;;;;31.91;24.45;100104.66;10383544;28;20168;-61
2022/06/16 07:34:01;;;;;;;7.00;2.70;;;;;;;32.03;24.29;100100.19;10386459;28;20103;-61
2022/06/16 07:39:04;;;;;;;7.18;2.60;;;;;;;31.95;24.37;100103.16;10387899;28;20147;-67
2022/06/16 07:44:16;;;;;;;6.78;2.80;;;;;;;31.58;24.22;100105.03;10387253;28;20049;-67
2022/06/16 07:49:25;;;;;;;4.95;2.58;;;;;;;31.39;25.12;100114.94;10388397;28;20056;-67
2022/06/16 07:54:29;;;;;;;6.00;2.67;;;;;;;31.56;24.52;100104.41;10388874;28;20053;-67
2022/06/16 07:59:52;;;;;;;6.80;2.60;;;;;;;31.64;24.65;100108.72;10386866;28;20520;-67
2022/06/16 08:04:54;;;;;;;6.63;2.40;;;;;;;31.64;23.83;100108.72;10388190;28;20144;-67
2022/06/16 08:09:56;;;;;;;9.13;2.70;;;;;;;31.76;24.04;100109.63;10386274;28;20339;-67
2022/06/16 08:14:58;;;;;;;6.78;2.60;;;;;;;31.50;23.91;100118.03;10388409;28;20142;-68
2022/06/16 08:20:01;;;;;;;5.45;2.20;;;;;;;31.66;23.55;100114.75;10376898;28;20046;-68
2022/06/16 08:25:03;;;;;;;7.28;2.30;;;;;;;31.90;23.25;100105.72;10385689;28;20144;-68
2022/06/16 08:30:08;;;;;;;7.60;2.67;;;;;;;31.95;22.90;100109.41;10384621;28;20199;-68
2022/06/16 08:35:11;;;;;;;4.50;2.47;;;;;;;31.67;23.39;100122.63;10384323;28;20046;-68
2022/06/16 08:40:14;;;;;;;7.25;2.30;;;;;;;31.35;23.65;100124.53;10382189;28;20100;-67
2022/06/16 08:45:46;;;;;;;4.28;2.10;;;;;;;31.36;22.99;100128.91;10384882;28;20132;-68
2022/06/16 08:51:09;;;;;;;5.03;2.25;;;;;;;31.51;22.94;100127.78;10382658;28;20461;-67
2022/06/16 08:56:57;;;;;;;6.20;2.10;;;;;;;31.77;22.30;100141.88;10369533;28;20136;-68
2022/06/16 09:02:11;;;;;;;7.38;2.60;;;;;;;31.82;22.02;100141.19;10385256;28;20164;-67
2022/06/16 09:07:52;;;;;;;6.40;1.95;;;;;;;31.76;21.83;100153.72;10383575;28;20057;-68
2022/06/16 09:13:28;;;;;;;9.85;2.42;;;;;;;31.44;22.31;100158.38;10363062;28;20191;-67
2022/06/16 09:19:04;;;;;;;6.70;2.22;;;;;;;31.30;21.77;100159.53;10384317;28;20483;-66
2022/06/16 09:24:14;;;;;;;9.20;2.30;;;;;;;31.10;22.62;100161.56;10375268;28;20181;-67
2022/06/16 09:29:36;;;;;;;7.50;2.20;;;;;;;30.94;22.67;100158.53;10380700;28;20686;-68
2022/06/16 09:34:40;;;;;;;5.82;2.20;;;;;;;31.08;21.77;100152.00;10381195;28;20045;-67
2022/06/16 09:39:49;;;;;;;4.57;1.95;;;;;;;30.40;23.11;100161.69;10382152;28;20124;-68
2022/06/16 09:45:01;;;;;;;9.85;2.20;;;;;;;30.27;23.26;100167.97;10362934;28;20132;-68
2022/06/16 09:50:21;;;;;;;5.60;2.17;;;;;;;31.09;23.18;100169.91;10382789;28;20053;-68
2022/06/16 09:55:34;;;;;;;6.35;2.08;;;;;;;31.15;22.25;100169.00;10382720;28;20081;-68
2022/06/16 10:00:43;;;;;;;3.58;1.70;;;;;;;31.13;21.40;100180.03;10381169;28;20053;-68
2022/06/16 10:06:12;;;;;;;8.55;2.00;;;;;;;30.61;21.13;100193.81;10381373;28;20140;-67
2022/06/16 10:11:31;;;;;;;6.38;1.77;;;;;;;30.70;21.55;100200.63;10383112;28;20136;-67
2022/06/16 10:16:50;;;;;;;7.28;1.80;;;;;;;30.72;21.71;100214.75;10381382;28;20056;-67
2022/06/16 10:21:53;;;;;;;4.60;1.90;;;;;;;30.65;20.69;100219.34;10381521;28;20077;-67
2022/06/16 10:26:57;;;;;;;6.50;2.00;;;;;;;30.61;21.76;100218.94;10382626;28;20059;-67
2022/06/16 10:32:01;;;;;;;7.10;2.00;;;;;;;30.38;21.81;100234.78;10382042;28;20140;-67
2022/06/16 10:37:15;;;;;;;3.53;1.77;;;;;;;30.27;21.58;100235.44;10370592;28;20049;-67
2022/06/16 10:42:28;;;;;;;3.95;1.70;;;;;;;30.10;21.06;100242.31;10374430;28;20061;-67
2022/06/16 10:47:40;;;;;;;4.93;1.73;;;;;;;29.51;20.97;100245.03;10378025;28;20176;-67
2022/06/16 10:52:49;;;;;;;5.15;1.75;;;;;;;29.24;21.61;100256.75;10378284;28;20060;-67
2022/06/16 10:58:05;;;;;;;7.75;1.80;;;;;;;28.78;23.07;100259.31;10382018;28;20131;-67
2022/06/16 11:03:10;;;;;;;4.90;1.90;;;;;;;28.52;23.52;100261.88;10383192;28;20553;-68
2022/06/16 11:08:14;;;;;;;5.30;2.03;;;;;;;28.27;23.64;100256.13;10384910;28;20444;-67
2022/06/16 11:13:38;;;;;;;5.57;2.00;;;;;;;28.20;23.81;100246.31;10387205;28;20049;-67
2022/06/16 11:18:44;;;;;;;6.65;1.80;;;;;;;28.30;23.18;100251.41;10386849;28;20132;-67
2022/06/16 11:23:54;;;;;;;5.38;1.92;;;;;;;28.22;24.55;100260.41;10381466;28;20570;-66
2022/06/16 11:29:14;;;;;;;5.70;1.90;;;;;;;28.21;24.65;100248.84;10386044;28;20053;-66
2022/06/16 11:34:27;;;;;;;9.70;2.30;;;;;;;27.95;25.05;100256.69;10385778;28;20045;-67
2022/06/16 11:39:39;;;;;;;4.55;1.65;;;;;;;27.92;24.67;100258.97;10386234;28;20041;-67
2022/06/16 11:44:52;;;;;;;4.55;1.70;;;;;;;28.07;24.99;100259.69;10386473;28;20152;-67
2022/06/16 11:50:09;;;;;;;5.65;1.77;;;;;;;28.26;24.71;100258.97;10385502;28;20779;-67
2022/06/16 11:55:31;;;;;;;5.30;1.60;;;;;;;28.00;24.53;100261.50;10386350;28;20050;-67
2022/06/16 12:00:55;;;;;;;5.50;1.73;;;;;;;28.00;23.77;100251.59;10382333;28;20743;-67
2022/06/16 12:06:17;;;;;;;7.50;1.70;;;;;;;28.05;23.49;100253.69;10387915;28;20088;-67
2022/06/16 12:11:34;;;;;;;9.18;1.80;;;;;;;27.91;22.67;100274.25;10388152;28;20054;-67
2022/06/16 12:17:01;;;;;;;2.58;1.40;;;;;;;27.61;22.22;100277.25;10388443;28;20056;-67
2022/06/16 12:22:31;;;;;;;6.53;1.80;;;;;;;27.81;21.90;100263.00;10388863;28;20136;-67
2022/06/16 12:27:43;;;;;;;6.55;1.48;;;;;;;27.88;21.84;100263.06;10388361;28;20613;-67
2022/06/16 12:32:54;;;;;;;3.83;1.52;;;;;;;27.87;22.28;100256.84;10377604;28;20053;-67
2022/06/16 12:38:18;;;;;;;5.03;1.65;;;;;;;28.10;22.31;100254.75;10382422;28;20068;-66
2022/06/16 12:43:26;;;;;;;3.10;1.50;;;;;;;28.23;21.71;100246.78;10373661;28;20506;-67
2022/06/16 12:48:46;;;;;;;4.53;1.60;;;;;;;28.03;20.63;100253.88;10374473;28;20064;-67
2022/06/16 12:53:57;;;;;;;3.15;1.40;;;;;;;27.98;20.50;100259.03;10380329;28;20536;-67
2022/06/16 12:59:24;;;;;;;4.25;1.77;;;;;;;27.73;21.13;100256.97;10377802;28;20460;-67
2022/06/16 13:04:31;;;;;;;3.55;1.42;;;;;;;27.89;20.39;100267.44;10379647;28;20103;-67
2022/06/16 13:09:33;;;;;;;4.32;1.35;;;;;;;27.92;21.11;100273.25;10381322;28;20578;-67
2022/06/16 13:14:42;;;;;;;3.47;1.38;;;;;;;28.17;20.46;100273.63;10374609;28;20158;-67
2022/06/16 13:19:54;;;;;;;4.80;1.60;;;;;;;28.14;20.19;100269.47;10380464;28;21179;-67
2022/06/16 13:24:59;;;;;;;3.13;1.40;;;;;;;27.89;21.07;100270.94;10382469;28;20136;-68
2022/06/16 13:30:19;;;;;;;7.10;1.23;;;;;;;27.74;19.94;100264.00;10384571;28;20044;-66
2022/06/16 13:35:23;;;;;;;6.22;2.20;;;;;;;27.95;20.95;100272.03;10382809;28;20149;-67
2022/06/16 13:40:28;;;;;;;7.40;1.70;;;;;;;28.09;21.53;100277.31;10383306;28;20128;-67
2022/06/16 13:45:30;;;;;;;3.17;1.38;;;;;;;28.29;21.54;100282.84;10378760;28;20052;-67
2022/06/16 13:50:44;;;;;;;5.18;1.50;;;;;;;28.32;20.87;100282.44;10381775;28;20045;-66
2022/06/16 13:56:00;;;;;;;4.07;1.30;;;;;;;28.15;19.51;100276.53;10376864;28;20572;-67
2022/06/16 14:01:08;;;;;;;2.25;1.33;;;;;;;28.00;19.11;100270.41;10382333;28;20520;-67
2022/06/16 14:06:15;;;;;;;4.55;1.63;;;;;;;27.91;20.65;100284.19;10383106;28;20075;-67
2022/06/16 14:11:24;;;;;;;2.70;1.38;;;;;;;28.20;20.20;100287.50;10382476;28;20401;-67
2022/06/16 14:16:34;;;;;;;4.45;1.48;;;;;;;28.27;19.78;100295.63;10381566;28;20067;-67
2022/06/16 14:22:08;;;;;;;1.83;1.20;;;;;;;27.93;20.01;100287.53;10380757;28;20057;-67
2022/06/16 14:27:19;;;;;;;3.55;1.30;;;;;;;28.21;19.70;100280.28;10369463;28;20068;-67
2022/06/16 14:32:44;;;;;;;3.40;1.27;;;;;;;28.18;20.08;100283.34;10386856;28;20308;-67
2022/06/16 14:37:55;;;;;;;6.03;1.45;;;;;;;28.19;19.94;100285.03;10389890;28;20824;-67
2022/06/16 14:43:00;;;;;;;3.17;1.13;;;;;;;28.18;20.17;100296.78;10391171;28;20045;-66
2022/06/16 14:48:16;;;;;;;2.65;1.10;;;;;;;28.04;20.10;100292.34;10388230;28;20053;-66
2022/06/16 14:53:27;;;;;;;3.72;1.40;;;;;;;27.95;19.76;100301.59;10387482;28;20140;-67
2022/06/16 14:58:52;;;;;;;3.17;1.38;;;;;;;27.77;20.08;100304.75;10387337;28;20595;-67
2022/06/16 15:03:56;;;;;;;5.03;1.30;;;;;;;27.86;19.75;100316.19;10389266;28;20060;-67
2022/06/16 15:09:01;;;;;;;3.05;1.10;;;;;;;27.81;19.49;100315.97;10389390;28;20249;-68
2022/06/16 15:14:06;;;;;;;1.92;1.20;;;;;;;27.73;19.36;100322.28;10385782;28;20136;-68
2022/06/16 15:19:10;;;;;;;2.38;1.23;;;;;;;27.70;19.30;100321.81;10382268;28;20140;-68
2022/06/16 15:24:13;;;;;;;3.20;1.20;;;;;;;27.71;19.78;100318.13;10384915;28;20045;-68
2022/06/16 15:29:15;;;;;;;4.28;1.20;;;;;;;27.79;19.00;100323.38;10377995;28;20046;-68
2022/06/16 15:39:40;;;;;;;3.72;1.20;;;;;;;27.49;19.85;100299.28;10383059;28;20432;-68
2022/06/16 15:44:58;;;;;;;4.10;1.10;;;;;;;27.32;19.36;100310.50;10385315;28;20054;-68
2022/06/16 15:50:12;;;;;;;3.35;1.10;;;;;;;27.25;19.19;100299.66;10377730;28;20050;-68
2022/06/16 15:55:22;;;;;;;3.17;1.23;;;;;;;27.26;19.62;100295.94;10380258;28;20046;-68
2022/06/16 16:00:27;;;;;;;2.33;1.00;;;;;;;27.10;19.69;100298.00;10382006;28;20097;-68
2022/06/16 16:05:36;;;;;;;2.70;1.20;;;;;;;27.09;20.07;100310.59;10378490;28;20132;-68
2022/06/16 16:10:38;;;;;;;3.88;1.30;;;;;;;27.10;19.78;100306.88;10385800;28;20045;-68
2022/06/16 16:16:13;;;;;;;2.67;1.50;;;;;;;26.96;19.88;100305.06;10382823;28;20796;-68
2022/06/16 16:21:15;;;;;;;4.90;1.20;;;;;;;26.99;20.60;100304.72;10373670;28;20050;-68
2022/06/16 16:26:20;;;;;;;2.22;1.20;;;;;;;27.25;20.07;100305.03;10356227;28;20063;-68
2022/06/16 16:31:24;;;;;;;2.78;1.20;;;;;;;27.16;20.51;100313.38;10352237;28;20099;-68
2022/06/16 16:36:33;;;;;;;4.00;1.00;;;;;;;27.22;20.43;100310.78;10365283;28;20057;-68
2022/06/16 16:47:11;;;;;;;3.97;1.52;;;;;;;26.94;20.68;100331.28;10376412;28;20519;-68
2022/06/16 16:52:22;;;;;;;1.98;1.10;;;;;;;27.12;21.06;100341.59;10377998;28;20297;-68
2022/06/16 16:57:24;;;;;;;3.00;1.10;;;;;;;27.30;20.66;100342.88;10380795;28;20454;-68
2022/06/16 17:02:26;;;;;;;3.33;1.20;;;;;;;27.13;20.33;100340.59;10379830;28;20336;-68
2022/06/16 17:07:29;;;;;;;3.13;1.20;;;;;;;26.98;21.29;100339.78;10371896;28;20049;-68
2022/06/16 17:12:32;;;;;;;1.52;0.90;;;;;;;26.95;20.27;100330.25;10375252;28;20048;-68
2022/06/16 17:17:34;;;;;;;3.33;1.13;;;;;;;26.73;21.14;100336.56;10380616;28;20084;-67
2022/06/16 17:22:37;;;;;;;2.22;1.20;;;;;;;26.64;21.73;100340.38;10380407;28;20489;-68
2022/06/16 17:27:40;;;;;;;4.93;1.17;;;;;;;26.62;21.96;100345.09;10379511;28;20144;-67
2022/06/16 17:32:43;;;;;;;3.38;1.10;;;;;;;26.42;21.92;100351.97;10378984;28;20050;-68
2022/06/16 17:37:45;;;;;;;5.97;1.20;;;;;;;26.28;22.65;100345.56;10381543;28;20474;-68
2022/06/16 17:42:47;;;;;;;2.50;1.20;;;;;;;26.25;22.64;100332.53;10379369;28;20596;-68
2022/06/16 17:47:49;;;;;;;2.47;1.13;;;;;;;26.13;23.12;100327.78;10384772;28;20081;-68
2022/06/16 18:03:39;;;;;;;4.72;1.20;;;;;;;25.65;23.91;100351.25;10384990;28;20136;-68
2022/06/16 18:08:50;;;;;;;3.63;1.30;;;;;;;25.45;25.12;100358.09;10384647;28;20081;-68
2022/06/16 18:13:54;;;;;;;3.75;1.40;;;;;;;25.28;24.93;100358.34;10381590;28;20136;-68
2022/06/16 18:18:58;;;;;;;4.90;1.23;;;;;;;25.05;24.93;100366.31;10381660;28;20428;-68
2022/06/16 18:24:06;;;;;;;4.03;1.40;;;;;;;24.92;25.03;100364.19;10383133;28;20508;-68
2022/06/16 18:29:08;;;;;;;3.83;1.30;;;;;;;24.56;25.84;100373.63;10384309;28;20159;-68
2022/06/16 18:34:11;;;;;;;4.45;1.40;;;;;;;24.40;26.43;100379.00;10384126;28;20041;-68
2022/06/16 18:39:13;;;;;;;2.63;1.30;;;;;;;24.11;26.68;100378.69;10383551;28;20540;-68
2022/06/16 18:44:15;;;;;;;4.55;1.40;;;;;;;23.99;27.05;100380.00;10381990;28;20560;-68
2022/06/16 18:49:17;;;;;;;4.57;1.50;;;;;;;23.79;27.69;100384.00;10383815;28;20307;-68
2022/06/16 18:54:20;;;;;;;2.40;1.40;;;;;;;23.57;28.19;100380.13;10384485;28;20099;-68
2022/06/16 18:59:22;;;;;;;2.97;1.25;;;;;;;23.44;28.81;100379.75;10382461;28;20132;-68
2022/06/16 19:04:26;;;;;;;5.28;1.23;;;;;;;23.34;29.39;100382.56;10382717;28;20045;-68
2022/06/16 19:09:27;;;;;;;4.50;1.50;;;;;;;23.22;30.08;100383.00;10383166;28;20053;-68
2022/06/16 19:14:30;;;;;;;2.78;1.40;;;;;;;23.21;30.77;100400.00;10382324;28;20538;-68
2022/06/16 19:19:32;;;;;;;2.83;1.38;;;;;;;23.05;31.20;100411.44;10387485;28;20049;-68
2022/06/16 19:24:34;;;;;;;2.42;1.63;;;;;;;22.94;31.52;100418.91;10388800;28;20096;-67
2022/06/16 19:29:36;;;;;;;6.82;1.50;;;;;;;22.76;31.77;100429.63;10389182;28;20338;-64
2022/06/16 19:34:38;;;;;;;3.15;1.60;;;;;;;22.60;32.69;100448.16;10389460;28;20144;-64
2022/06/16 19:39:54;;;;;;;4.78;1.48;;;;;;;22.31;32.94;100468.94;10389399;28;20148;-64
2022/06/16 19:55:41;;;;;;;3.38;1.38;;;;;;;21.84;32.96;100492.25;10389274;28;20176;-63
2022/06/16 20:00:47;;;;;;;7.40;1.42;;;;;;;21.78;33.46;100504.31;10389748;28;20232;-64
2022/06/16 20:05:51;;;;;;;3.60;1.67;;;;;;;21.57;33.92;100514.41;10387715;28;20050;-64
2022/06/16 20:10:54;;;;;;;8.48;1.60;;;;;;;21.37;34.16;100527.94;10385961;28;20057;-64
2022/06/16 20:15:55;;;;;;;3.30;1.60;;;;;;;21.20;34.82;100532.16;10385246;28;20045;-64
2022/06/16 20:21:06;;;;;;;3.30;1.58;;;;;;;21.15;35.01;100525.59;10386919;28;20064;-64
2022/06/16 20:26:09;;;;;;;4.40;1.50;;;;;;;21.15;34.84;100525.59;10387996;28;20531;-64
2022/06/16 20:31:10;;;;;;;4.28;1.70;;;;;;;20.87;35.15;100538.81;10385831;28;20399;-64
2022/06/16 20:36:12;;;;;;;6.32;1.77;;;;;;;20.57;35.78;100535.47;10385981;28;20057;-64
2022/06/16 20:46:38;;;;;;;4.22;1.70;;;;;;;20.18;36.40;100546.06;10384805;28;20061;-64
2022/06/16 20:51:40;;;;;;;4.07;1.88;;;;;;;20.12;36.83;100559.91;10386073;28;20053;-64
2022/06/16 20:56:46;;;;;;;5.35;1.73;;;;;;;20.11;36.75;100568.03;10384419;28;20060;-64
2022/06/16 21:02:02;;;;;;;3.83;1.52;;;;;;;20.14;37.08;100570.38;10386420;28;20450;-64
2022/06/16 21:07:07;;;;;;;28.92;2.58;;;;;;;20.04;37.46;100569.53;10384970;28;20054;-64
2022/06/16 21:12:23;;;;;;;7.57;1.70;;;;;;;19.90;37.77;100564.59;10385274;28;20059;-63
2022/06/16 21:17:28;;;;;;;4.20;2.33;;;;;;;19.82;38.25;100561.78;10385632;28;20820;-63
2022/06/16 21:22:36;;;;;;;9.45;1.75;;;;;;;19.73;38.50;100573.16;10385255;28;20046;-63
2022/06/16 21:27:38;;;;;;;3.10;1.50;;;;;;;19.62;39.02;100574.13;10385488;28;20057;-63
2022/06/16 21:32:40;;;;;;;4.47;1.90;;;;;;;19.34;39.75;100565.06;10385440;28;20140;-63
2022/06/16 21:37:42;;;;;;;4.20;1.80;;;;;;;19.10;40.16;100555.69;10384268;28;20421;-63
2022/06/16 21:42:44;;;;;;;4.43;2.15;;;;;;;18.62;41.26;100584.50;10383486;28;20319;-63
2022/06/16 21:47:52;;;;;;;3.97;1.70;;;;;;;18.52;41.55;100605.59;10383954;28;20053;-63
2022/06/16 21:52:55;;;;;;;4.47;1.88;;;;;;;18.55;41.41;100608.00;10384284;28;20521;-62
2022/06/16 21:57:58;;;;;;;3.85;1.85;;;;;;;18.43;41.35;100600.22;10384059;28;20053;-63
2022/06/16 22:03:04;;;;;;;3.70;1.80;;;;;;;18.17;42.49;100599.66;10383449;28;20565;-63
2022/06/16 22:08:05;;;;;;;5.20;2.00;;;;;;;18.22;42.48;100609.91;10382961;28;20053;-63
2022/06/16 22:13:11;;;;;;;6.45;1.92;;;;;;;18.19;42.56;100621.59;10383128;28;20053;-63
2022/06/16 22:18:23;;;;;;;6.72;2.10;;;;;;;18.04;43.65;100621.91;10383476;28;20046;-62
2022/06/16 22:23:31;;;;;;;4.72;1.95;;;;;;;18.08;43.65;100613.63;10384188;28;20480;-63
2022/06/16 22:28:41;;;;;;;4.18;2.00;;;;;;;17.77;44.17;100625.78;10383411;28;20196;-62
2022/06/16 22:33:44;;;;;;;;;;;;;;;17.37;44.68;100642.22;10383914;28;20061;-62
2022/06/16 22:38:46;;;;;;;4.60;1.98;;;;;;;17.55;44.71;100627.59;10383681;28;20759;-62
2022/06/16 22:43:58;;;;;;;7.20;2.42;;;;;;;17.49;45.45;100636.84;10379277;28;20127;-63
2022/06/16 22:49:00;;;;;;;5.53;2.30;;;;;;;17.42;45.23;100637.44;10383641;28;20144;-62
2022/06/16 22:59:22;;;;;;;3.53;2.10;;;;;;;17.03;46.27;100654.50;10390490;28;20045;-62
2022/06/16 23:04:24;;;;;;;6.93;2.53;;;;;;;16.97;46.70;100661.09;10390313;28;20128;-62
2022/06/16 23:09:34;;;;;;;5.45;2.17;;;;;;;16.54;47.38;100670.47;10389957;28;20148;-62
2022/06/16 23:14:36;;;;;;;3.72;2.28;;;;;;;16.29;47.81;100665.25;10388264;28;20283;-62
2022/06/16 23:19:38;;;;;;;3.80;2.40;;;;;;;16.44;47.50;100660.69;10390207;28;20065;-63
2022/06/16 23:24:40;;;;;;;3.65;2.10;;;;;;;16.41;47.74;100671.44;10390385;28;20111;-63
2022/06/16 23:29:57;;;;;;;4.55;2.35;;;;;;;16.32;47.96;100664.19;10385462;28;20058;-63
2022/06/16 23:35:00;;;;;;;5.18;2.45;;;;;;;16.26;48.43;100673.41;10386317;28;20136;-63
2022/06/16 23:40:02;;;;;;;5.63;2.58;;;;;;;16.22;48.65;100672.75;10387996;28;20089;-63
2022/06/16 23:45:05;;;;;;;4.97;2.30;;;;;;;16.18;48.41;100665.19;10387947;28;20569;-63
2022/06/16 23:50:08;;;;;;;3.85;2.10;;;;;;;16.09;48.87;100671.09;10389275;28;20049;-64
2022/06/16 23:55:11;;;;;;;4.28;2.20;;;;;;;16.05;48.74;100667.84;10388888;28;20061;-61
